aviador You're here:

LCPH Decoded Metar

PAPHOS in CYPRUS
Report Time2017-08-24 06:30:00
UTC Time2017-08-24 07:00:14
Flight Rules vfr VFR
Wind230° at 05 kt
W.Decomp.*RWY 29: 2.2 kt HW 4.5 kt LCW
W.Rank230° ranks 12
Current wind is below 230° avg. (6.1)
Visibility9999 m
Phenomena:N/A
Clouds:Few 020 Hf
Expected CloudBase > 2,400 ft AGL from Temp-Dew spread
CeilingNone
Temp29°C (ISA +14)
Dew Point23°C (70% RH)
Heat Index32.7°C
QNH1009 hPa
Density Alt2,142 ft
Elevation26 ft
Report Wrong Elevation
Raw Report
LCPH 240630Z 23005KT 9999 FEW020 29/23 Q1009=

Extra information for LCPH:More info

Metar Taf Metar & Taf Last 4 Metars F.Rules Stats Wind Profile Meteogram Temp Stats Airport Information Weather charts Add Link Nearby VenuesMetar ALERT Operation Metar Decoded Social comments